sensor_id;sensor_type;location;lat;lon;timestamp;pressure;altitude;pressure_sealevel;temperature;humidity
39455;BME280;25155;41.890;23.446;2023-05-16T01:12:12;91700.47;;;13.20;77.62
39455;BME280;25155;41.890;23.446;2023-05-16T01:14:44;91690.50;;;13.22;77.70
39455;BME280;25155;41.890;23.446;2023-05-16T01:17:13;91688.97;;;13.21;78.46
39455;BME280;25155;41.890;23.446;2023-05-16T01:19:46;91695.03;;;13.16;79.02
39455;BME280;25155;41.890;23.446;2023-05-16T01:22:19;91692.34;;;13.02;78.18
39455;BME280;25155;41.890;23.446;2023-05-16T01:25:01;91687.81;;;12.89;78.14
39455;BME280;25155;41.890;23.446;2023-05-16T01:27:32;91693.59;;;12.86;78.34
39455;BME280;25155;41.890;23.446;2023-05-16T01:30:09;91685.75;;;12.86;78.63
39455;BME280;25155;41.890;23.446;2023-05-16T01:32:36;91688.59;;;12.89;78.47
39455;BME280;25155;41.890;23.446;2023-05-16T01:35:03;91682.00;;;12.92;78.52
39455;BME280;25155;41.890;23.446;2023-05-16T01:37:32;91679.59;;;12.96;78.06
39455;BME280;25155;41.890;23.446;2023-05-16T01:40:02;91677.78;;;12.96;77.87
39455;BME280;25155;41.890;23.446;2023-05-16T01:42:34;91666.75;;;12.99;77.92
39455;BME280;25155;41.890;23.446;2023-05-16T01:45:04;91671.97;;;12.99;77.73
39455;BME280;25155;41.890;23.446;2023-05-16T01:47:37;91669.66;;;12.98;78.10
39455;BME280;25155;41.890;23.446;2023-05-16T01:50:07;91666.22;;;12.97;78.33
39455;BME280;25155;41.890;23.446;2023-05-16T01:52:36;91662.56;;;12.98;78.10
39455;BME280;25155;41.890;23.446;2023-05-16T01:55:05;91657.81;;;13.00;78.21
39455;BME280;25155;41.890;23.446;2023-05-16T01:57:37;91661.00;;;12.97;80.00
39455;BME280;25155;41.890;23.446;2023-05-16T02:00:05;91653.28;;;12.87;80.03
39455;BME280;25155;41.890;23.446;2023-05-16T02:02:32;91657.91;;;12.76;80.66
39455;BME280;25155;41.890;23.446;2023-05-16T02:04:59;91661.69;;;12.65;81.60
39455;BME280;25155;41.890;23.446;2023-05-16T02:07:26;91665.50;;;12.53;81.78
39455;BME280;25155;41.890;23.446;2023-05-16T02:09:53;91656.34;;;12.51;82.19
39455;BME280;25155;41.890;23.446;2023-05-16T02:12:20;91662.59;;;12.55;81.96
39455;BME280;25155;41.890;23.446;2023-05-16T02:14:48;91658.06;;;12.61;81.47
39455;BME280;25155;41.890;23.446;2023-05-16T02:17:15;91659.38;;;12.63;81.60
39455;BME280;25155;41.890;23.446;2023-05-16T02:19:41;91664.66;;;12.58;81.59
39455;BME280;25155;41.890;23.446;2023-05-16T02:22:08;91662.03;;;12.58;81.42
39455;BME280;25155;41.890;23.446;2023-05-16T02:24:36;91662.53;;;12.60;81.10
39455;BME280;25155;41.890;23.446;2023-05-16T02:27:03;91670.59;;;12.64;80.92
39455;BME280;25155;41.890;23.446;2023-05-16T02:29:30;91671.59;;;12.68;80.67
39455;BME280;25155;41.890;23.446;2023-05-16T02:31:58;91660.56;;;12.71;80.50
39455;BME280;25155;41.890;23.446;2023-05-16T02:34:25;91664.47;;;12.73;80.34
39455;BME280;25155;41.890;23.446;2023-05-16T02:36:52;91666.03;;;12.74;80.07
39455;BME280;25155;41.890;23.446;2023-05-16T02:39:19;91664.94;;;12.76;80.41
39455;BME280;25155;41.890;23.446;2023-05-16T02:41:46;91663.91;;;12.77;79.74
39455;BME280;25155;41.890;23.446;2023-05-16T02:44:13;91658.66;;;12.77;79.94
39455;BME280;25155;41.890;23.446;2023-05-16T02:46:39;91665.47;;;12.78;79.92
39455;BME280;25155;41.890;23.446;2023-05-16T02:49:08;91662.84;;;12.78;79.61
39455;BME280;25155;41.890;23.446;2023-05-16T02:51:34;91665.47;;;12.78;79.64
39455;BME280;25155;41.890;23.446;2023-05-16T02:54:01;91665.97;;;12.80;79.63
39455;BME280;25155;41.890;23.446;2023-05-16T02:56:28;91658.09;;;12.80;79.88
39455;BME280;25155;41.890;23.446;2023-05-16T02:58:55;91669.97;;;12.72;81.17
39455;BME280;25155;41.890;23.446;2023-05-16T03:01:21;91658.81;;;12.66;80.86
39455;BME280;25155;41.890;23.446;2023-05-16T03:03:48;91667.69;;;12.65;80.81
39455;BME280;25155;41.890;23.446;2023-05-16T03:06:16;91662.19;;;12.67;80.88
39455;BME280;25155;41.890;23.446;2023-05-16T03:08:43;91657.72;;;12.67;80.67
39455;BME280;25155;41.890;23.446;2023-05-16T03:11:10;91662.69;;;12.69;80.04
39455;BME280;25155;41.890;23.446;2023-05-16T03:13:36;91658.81;;;12.66;79.74
39455;BME280;25155;41.890;23.446;2023-05-16T03:16:03;91654.91;;;12.64;79.55
39455;BME280;25155;41.890;23.446;2023-05-16T03:18:30;91656.25;;;12.61;79.35
39455;BME280;25155;41.890;23.446;2023-05-16T03:20:57;91658.34;;;12.59;79.26
39455;BME280;25155;41.890;23.446;2023-05-16T03:23:25;91652.63;;;12.57;79.15
39455;BME280;25155;41.890;23.446;2023-05-16T03:25:52;91657.38;;;12.55;79.28
39455;BME280;25155;41.890;23.446;2023-05-16T03:28:19;91668.13;;;12.53;79.07
39455;BME280;25155;41.890;23.446;2023-05-16T03:30:45;91666.06;;;12.50;79.06
39455;BME280;25155;41.890;23.446;2023-05-16T03:33:12;91662.50;;;12.41;79.60
39455;BME280;25155;41.890;23.446;2023-05-16T03:35:39;91663.84;;;12.39;79.50
39455;BME280;25155;41.890;23.446;2023-05-16T03:38:06;91671.41;;;12.40;79.43
39455;BME280;25155;41.890;23.446;2023-05-16T03:40:34;91665.41;;;12.40;79.25
39455;BME280;25155;41.890;23.446;2023-05-16T03:43:01;91669.06;;;12.39;79.37
39455;BME280;25155;41.890;23.446;2023-05-16T03:45:28;91673.75;;;12.42;79.72
39455;BME280;25155;41.890;23.446;2023-05-16T03:47:55;91657.78;;;12.43;79.94
39455;BME280;25155;41.890;23.446;2023-05-16T03:50:22;91662.72;;;12.45;80.07
39455;BME280;25155;41.890;23.446;2023-05-16T03:52:48;91677.88;;;12.48;80.15
39455;BME280;25155;41.890;23.446;2023-05-16T03:55:17;91674.03;;;12.40;80.79
39455;BME280;25155;41.890;23.446;2023-05-16T03:57:45;91666.53;;;12.33;81.32
39455;BME280;25155;41.890;23.446;2023-05-16T04:00:14;91662.34;;;12.32;81.51
39455;BME280;25155;41.890;23.446;2023-05-16T04:02:41;91668.38;;;12.33;81.71
39455;BME280;25155;41.890;23.446;2023-05-16T04:05:09;91674.09;;;12.35;81.77
39455;BME280;25155;41.890;23.446;2023-05-16T04:07:36;91666.78;;;12.32;81.71
39455;BME280;25155;41.890;23.446;2023-05-16T04:10:04;91662.88;;;12.29;81.80
39455;BME280;25155;41.890;23.446;2023-05-16T04:12:31;91669.19;;;12.28;82.57
39455;BME280;25155;41.890;23.446;2023-05-16T04:14:59;91669.00;;;12.19;83.23
39455;BME280;25155;41.890;23.446;2023-05-16T04:17:26;91675.59;;;12.17;83.31
39455;BME280;25155;41.890;23.446;2023-05-16T04:19:52;91665.53;;;12.05;84.72
39455;BME280;25155;41.890;23.446;2023-05-16T04:22:20;91665.84;;;11.98;85.62
39455;BME280;25155;41.890;23.446;2023-05-16T04:24:47;91671.13;;;11.93;86.07
39455;BME280;25155;41.890;23.446;2023-05-16T04:27:14;91665.38;;;11.91;87.12
39455;BME280;25155;41.890;23.446;2023-05-16T04:29:41;91664.88;;;11.89;87.59
39455;BME280;25155;41.890;23.446;2023-05-16T04:32:09;91675.59;;;11.88;88.02
39455;BME280;25155;41.890;23.446;2023-05-16T04:34:36;91674.28;;;11.90;88.03
39455;BME280;25155;41.890;23.446;2023-05-16T04:37:03;91665.91;;;11.93;88.24
39455;BME280;25155;41.890;23.446;2023-05-16T04:39:32;91666.06;;;12.02;88.08
39455;BME280;25155;41.890;23.446;2023-05-16T04:41:58;91650.81;;;12.09;87.54
39455;BME280;25155;41.890;23.446;2023-05-16T04:44:26;91656.53;;;12.16;87.59
39455;BME280;25155;41.890;23.446;2023-05-16T04:46:53;91633.69;;;12.22;87.54
39455;BME280;25155;41.890;23.446;2023-05-16T04:49:21;91641.97;;;12.29;87.64
39455;BME280;25155;41.890;23.446;2023-05-16T04:51:48;91660.81;;;12.31;87.51
39455;BME280;25155;41.890;23.446;2023-05-16T04:54:14;91667.06;;;12.30;88.15
39455;BME280;25155;41.890;23.446;2023-05-16T04:56:41;91660.28;;;12.29;88.40
39455;BME280;25155;41.890;23.446;2023-05-16T04:59:08;91661.41;;;12.23;88.97
39455;BME280;25155;41.890;23.446;2023-05-16T05:01:35;91665.19;;;12.12;89.56
39455;BME280;25155;41.890;23.446;2023-05-16T05:04:01;91668.91;;;12.06;90.26
39455;BME280;25155;41.890;23.446;2023-05-16T05:06:30;91662.72;;;11.96;91.68
39455;BME280;25155;41.890;23.446;2023-05-16T05:08:57;91652.25;;;11.96;92.42
39455;BME280;25155;41.890;23.446;2023-05-16T05:11:23;91662.16;;;11.99;92.99
39455;BME280;25155;41.890;23.446;2023-05-16T05:13:51;91663.19;;;12.04;93.15
39455;BME280;25155;41.890;23.446;2023-05-16T05:16:18;91651.09;;;12.08;92.97
39455;BME280;25155;41.890;23.446;2023-05-16T05:18:44;91633.28;;;12.15;92.77
39455;BME280;25155;41.890;23.446;2023-05-16T05:21:11;91645.44;;;12.25;92.67
39455;BME280;25155;41.890;23.446;2023-05-16T05:23:40;91632.03;;;12.31;92.54
39455;BME280;25155;41.890;23.446;2023-05-16T05:26:06;91630.06;;;12.42;92.02
39455;BME280;25155;41.890;23.446;2023-05-16T05:28:33;91629.91;;;12.52;92.16
39455;BME280;25155;41.890;23.446;2023-05-16T05:31:02;91641.69;;;12.55;91.36
39455;BME280;25155;41.890;23.446;2023-05-16T05:33:29;91640.59;;;12.56;91.02
39455;BME280;25155;41.890;23.446;2023-05-16T05:35:56;91640.91;;;12.54;90.52
39455;BME280;25155;41.890;23.446;2023-05-16T05:38:23;91640.91;;;12.54;91.00
39455;BME280;25155;41.890;23.446;2023-05-16T05:40:51;91636.44;;;12.55;90.95
39455;BME280;25155;41.890;23.446;2023-05-16T05:43:18;91632.19;;;12.59;91.28
39455;BME280;25155;41.890;23.446;2023-05-16T05:45:45;91633.69;;;12.65;91.72
39455;BME280;25155;41.890;23.446;2023-05-16T05:48:12;91622.38;;;12.70;91.35
39455;BME280;25155;41.890;23.446;2023-05-16T05:50:38;91611.78;;;12.80;91.20
39455;BME280;25155;41.890;23.446;2023-05-16T05:53:05;91608.22;;;12.90;91.40
39455;BME280;25155;41.890;23.446;2023-05-16T05:55:32;91610.97;;;12.99;91.17
39455;BME280;25155;41.890;23.446;2023-05-16T05:58:00;91607.72;;;13.07;90.86
39455;BME280;25155;41.890;23.446;2023-05-16T06:00:27;91608.91;;;13.15;90.56
39455;BME280;25155;41.890;23.446;2023-05-16T06:02:54;91618.72;;;13.23;90.40
39455;BME280;25155;41.890;23.446;2023-05-16T06:05:21;91619.13;;;13.30;89.74
39455;BME280;25155;41.890;23.446;2023-05-16T06:07:49;91620.16;;;13.34;89.03
39455;BME280;25155;41.890;23.446;2023-05-16T06:10:16;91626.09;;;13.40;88.88
39455;BME280;25155;41.890;23.446;2023-05-16T06:12:42;91624.19;;;13.45;88.56
39455;BME280;25155;41.890;23.446;2023-05-16T06:15:11;91627.97;;;13.53;88.63
39455;BME280;25155;41.890;23.446;2023-05-16T06:17:37;91610.81;;;13.61;88.29
39455;BME280;25155;41.890;23.446;2023-05-16T06:20:05;91589.94;;;13.70;88.33
39455;BME280;25155;41.890;23.446;2023-05-16T06:22:32;91599.00;;;13.77;88.99
39455;BME280;25155;41.890;23.446;2023-05-16T06:24:58;91610.84;;;13.89;89.38
39455;BME280;25155;41.890;23.446;2023-05-16T06:27:25;91594.63;;;14.00;89.41
39455;BME280;25155;41.890;23.446;2023-05-16T06:29:52;91597.72;;;14.16;89.04
39455;BME280;25155;41.890;23.446;2023-05-16T06:32:20;91602.00;;;14.26;87.57
39455;BME280;25155;41.890;23.446;2023-05-16T06:34:47;91598.50;;;14.31;87.08
39455;BME280;25155;41.890;23.446;2023-05-16T06:37:14;91601.50;;;14.38;87.05
39455;BME280;25155;41.890;23.446;2023-05-16T06:39:41;91606.84;;;14.33;85.85
39455;BME280;25155;41.890;23.446;2023-05-16T06:42:08;91599.88;;;14.28;84.25
39455;BME280;25155;41.890;23.446;2023-05-16T06:44:35;91595.69;;;14.27;83.74
39455;BME280;25155;41.890;23.446;2023-05-16T06:47:02;91602.19;;;14.30;83.31
39455;BME280;25155;41.890;23.446;2023-05-16T06:49:30;91598.69;;;14.34;82.81
39455;BME280;25155;41.890;23.446;2023-05-16T06:51:57;91597.81;;;14.39;83.74
39455;BME280;25155;41.890;23.446;2023-05-16T06:54:24;91591.88;;;14.47;83.14
39455;BME280;25155;41.890;23.446;2023-05-16T06:56:50;91584.88;;;14.56;83.36
39455;BME280;25155;41.890;23.446;2023-05-16T06:59:17;91571.09;;;14.65;82.24
39455;BME280;25155;41.890;23.446;2023-05-16T07:01:44;91573.66;;;14.79;82.00
39455;BME280;25155;41.890;23.446;2023-05-16T07:04:11;91577.34;;;14.77;80.50
39455;BME280;25155;41.890;23.446;2023-05-16T07:06:39;91566.72;;;14.83;81.12
39455;BME280;25155;41.890;23.446;2023-05-16T07:09:06;91557.84;;;14.92;81.82
39455;BME280;25155;41.890;23.446;2023-05-16T07:11:32;91561.78;;;15.04;80.58
39455;BME280;25155;41.890;23.446;2023-05-16T07:13:59;91548.72;;;15.12;79.79
39455;BME280;25155;41.890;23.446;2023-05-16T07:16:26;91542.13;;;15.24;79.67
39455;BME280;25155;41.890;23.446;2023-05-16T07:18:53;91555.00;;;15.34;79.16
39455;BME280;25155;41.890;23.446;2023-05-16T07:21:19;91546.09;;;15.44;79.31
39455;BME280;25155;41.890;23.446;2023-05-16T07:23:48;91544.78;;;15.55;78.57
39455;BME280;25155;41.890;23.446;2023-05-16T07:26:14;91538.31;;;15.61;77.99
39455;BME280;25155;41.890;23.446;2023-05-16T07:28:41;91521.34;;;15.67;78.43
39455;BME280;25155;41.890;23.446;2023-05-16T07:31:08;91525.59;;;15.77;77.96
39455;BME280;25155;41.890;23.446;2023-05-16T07:33:35;91516.63;;;15.87;77.25
39455;BME280;25155;41.890;23.446;2023-05-16T07:36:02;91523.94;;;15.99;77.39
39455;BME280;25155;41.890;23.446;2023-05-16T07:38:29;91529.53;;;16.06;76.44
39455;BME280;25155;41.890;23.446;2023-05-16T07:47:00;91541.94;;;16.23;75.20
39455;BME280;25155;41.890;23.446;2023-05-16T07:49:27;91535.63;;;16.24;74.63
39455;BME280;25155;41.890;23.446;2023-05-16T07:51:54;91545.53;;;16.27;74.31
39455;BME280;25155;41.890;23.446;2023-05-16T07:54:21;91541.50;;;16.30;74.15
39455;BME280;25155;41.890;23.446;2023-05-16T07:56:47;91536.38;;;16.33;73.80
39455;BME280;25155;41.890;23.446;2023-05-16T07:59:14;91527.28;;;16.39;74.32
39455;BME280;25155;41.890;23.446;2023-05-16T08:01:41;91537.03;;;16.48;74.50
39455;BME280;25155;41.890;23.446;2023-05-16T08:04:09;91526.34;;;16.53;74.41
39455;BME280;25155;41.890;23.446;2023-05-16T08:06:36;91529.63;;;16.58;74.18
39455;BME280;25155;41.890;23.446;2023-05-16T08:09:03;91529.44;;;16.55;72.70
39455;BME280;25155;41.890;23.446;2023-05-16T08:11:30;91537.53;;;16.58;73.13
39455;BME280;25155;41.890;23.446;2023-05-16T08:13:56;91533.94;;;16.63;73.63
39455;BME280;25155;41.890;23.446;2023-05-16T08:16:23;91535.66;;;16.68;73.40
39455;BME280;25155;41.890;23.446;2023-05-16T08:18:50;91537.69;;;16.62;72.71
39455;BME280;25155;41.890;23.446;2023-05-16T08:21:19;91531.94;;;16.60;73.02
39455;BME280;25155;41.890;23.446;2023-05-16T08:23:46;91540.78;;;16.55;72.12
39455;BME280;25155;41.890;23.446;2023-05-16T08:26:12;91542.31;;;16.48;72.29
39455;BME280;25155;41.890;23.446;2023-05-16T08:28:39;91534.09;;;16.40;73.04
39455;BME280;25155;41.890;23.446;2023-05-16T08:31:07;91552.03;;;16.30;73.62
39455;BME280;25155;41.890;23.446;2023-05-16T08:33:34;91547.38;;;16.27;74.31
39455;BME280;25155;41.890;23.446;2023-05-16T08:36:01;91559.91;;;16.21;74.86
39455;BME280;25155;41.890;23.446;2023-05-16T08:38:29;91548.00;;;16.23;75.16
39455;BME280;25155;41.890;23.446;2023-05-16T08:40:56;91539.78;;;16.25;75.67
39455;BME280;25155;41.890;23.446;2023-05-16T08:43:22;91538.56;;;16.31;76.04
39455;BME280;25155;41.890;23.446;2023-05-16T08:45:49;91543.72;;;16.45;76.35
39455;BME280;25155;41.890;23.446;2023-05-16T08:48:16;91521.72;;;16.58;76.23
39455;BME280;25155;41.890;23.446;2023-05-16T08:50:44;91531.34;;;16.72;76.47
39455;BME280;25155;41.890;23.446;2023-05-16T09:04:56;91524.59;;;17.44;75.42
39455;BME280;25155;41.890;23.446;2023-05-16T09:07:24;91531.25;;;17.50;74.91
39455;BME280;25155;41.890;23.446;2023-05-16T09:09:51;91520.53;;;17.56;74.01
39455;BME280;25155;41.890;23.446;2023-05-16T09:12:18;91532.78;;;17.60;73.56
39455;BME280;25155;41.890;23.446;2023-05-16T09:14:45;91517.88;;;17.64;72.74
39455;BME280;25155;41.890;23.446;2023-05-16T09:17:13;91527.78;;;17.67;71.63
39455;BME280;25155;41.890;23.446;2023-05-16T09:19:40;91520.47;;;17.73;71.18
39455;BME280;25155;41.890;23.446;2023-05-16T09:22:10;91539.53;;;17.79;69.51
39455;BME280;25155;41.890;23.446;2023-05-16T09:24:37;91544.94;;;17.82;68.52
39455;BME280;25155;41.890;23.446;2023-05-16T09:27:08;91532.09;;;17.89;69.29
39455;BME280;25155;41.890;23.446;2023-05-16T09:29:35;91534.22;;;17.96;69.26
39455;BME280;25155;41.890;23.446;2023-05-16T09:32:08;91529.53;;;18.02;68.58
39455;BME280;25155;41.890;23.446;2023-05-16T09:34:37;91523.94;;;18.03;67.72
39455;BME280;25155;41.890;23.446;2023-05-16T09:37:04;91520.34;;;18.08;67.16
39455;BME280;25155;41.890;23.446;2023-05-16T09:39:32;91514.91;;;18.13;66.37
39455;BME280;25155;41.890;23.446;2023-05-16T09:41:59;91504.16;;;18.18;67.13
39455;BME280;25155;41.890;23.446;2023-05-16T09:44:26;91505.53;;;18.24;66.83
39455;BME280;25155;41.890;23.446;2023-05-16T09:46:53;91501.59;;;18.31;65.96
39455;BME280;25155;41.890;23.446;2023-05-16T09:49:20;91501.41;;;18.36;66.16
39455;BME280;25155;41.890;23.446;2023-05-16T09:51:49;91497.50;;;18.42;65.33
39455;BME280;25155;41.890;23.446;2023-05-16T09:54:27;91495.75;;;18.46;65.00
39455;BME280;25155;41.890;23.446;2023-05-16T09:56:56;91500.41;;;18.49;65.54
39455;BME280;25155;41.890;23.446;2023-05-16T09:59:23;91503.03;;;18.49;65.76
39455;BME280;25155;41.890;23.446;2023-05-16T10:01:49;91513.59;;;18.49;64.79
39455;BME280;25155;41.890;23.446;2023-05-16T10:04:18;91519.19;;;18.48;64.61
39455;BME280;25155;41.890;23.446;2023-05-16T10:06:45;91515.78;;;18.47;65.10
39455;BME280;25155;41.890;23.446;2023-05-16T10:09:13;91517.75;;;18.50;64.48
39455;BME280;25155;41.890;23.446;2023-05-16T10:11:41;91515.13;;;18.50;64.48
39455;BME280;25155;41.890;23.446;2023-05-16T10:14:10;91515.78;;;18.47;62.36
39455;BME280;25155;41.890;23.446;2023-05-16T10:16:37;91515.00;;;18.47;62.43
39455;BME280;25155;41.890;23.446;2023-05-16T10:19:06;91512.22;;;18.43;62.66
39455;BME280;25155;41.890;23.446;2023-05-16T10:21:33;91508.50;;;18.44;63.07
39455;BME280;25155;41.890;23.446;2023-05-16T10:24:01;91493.13;;;18.46;62.59
39455;BME280;25155;41.890;23.446;2023-05-16T10:26:29;91506.00;;;18.48;62.49
39455;BME280;25155;41.890;23.446;2023-05-16T10:28:56;91497.88;;;18.53;62.61
39455;BME280;25155;41.890;23.446;2023-05-16T10:31:24;91492.41;;;18.58;63.45
39455;BME280;25155;41.890;23.446;2023-05-16T10:33:51;91491.44;;;18.62;63.31
39455;BME280;25155;41.890;23.446;2023-05-16T10:36:19;91495.44;;;18.69;63.23
39455;BME280;25155;41.890;23.446;2023-05-16T10:38:45;91483.56;;;18.75;62.88
39455;BME280;25155;41.890;23.446;2023-05-16T10:41:13;91479.97;;;18.79;63.20
39455;BME280;25155;41.890;23.446;2023-05-16T10:43:43;91487.72;;;18.85;63.35
39455;BME280;25155;41.890;23.446;2023-05-16T10:46:10;91498.41;;;18.88;63.63
39455;BME280;25155;41.890;23.446;2023-05-16T10:48:40;91509.13;;;18.92;63.34
39455;BME280;25155;41.890;23.446;2023-05-16T10:53:50;91509.69;;;18.97;63.68
39455;BME280;25155;41.890;23.446;2023-05-16T10:56:21;91509.03;;;19.01;63.82
39455;BME280;25155;41.890;23.446;2023-05-16T10:58:48;91520.03;;;19.03;63.46
39455;BME280;25155;41.890;23.446;2023-05-16T11:01:20;91517.41;;;19.03;63.55
39455;BME280;25155;41.890;23.446;2023-05-16T11:04:01;91515.53;;;19.03;63.61
39455;BME280;25155;41.890;23.446;2023-05-16T11:06:28;91512.13;;;19.03;64.00
39455;BME280;25155;41.890;23.446;2023-05-16T11:08:57;91504.19;;;19.03;64.20
39455;BME280;25155;41.890;23.446;2023-05-16T11:11:43;91502.00;;;19.05;64.18
39455;BME280;25155;41.890;23.446;2023-05-16T11:14:16;91511.91;;;19.08;64.43
39455;BME280;25155;41.890;23.446;2023-05-16T11:16:47;91498.50;;;19.13;64.71
39455;BME280;25155;41.890;23.446;2023-05-16T11:19:27;91497.84;;;19.16;64.86
39455;BME280;25155;41.890;23.446;2023-05-16T11:22:04;91492.69;;;19.20;64.53
39455;BME280;25155;41.890;23.446;2023-05-16T11:24:31;91494.66;;;19.23;64.30
39455;BME280;25155;41.890;23.446;2023-05-16T11:26:59;91489.19;;;19.28;64.46
39455;BME280;25155;41.890;23.446;2023-05-16T11:29:27;91467.50;;;19.34;65.00
39455;BME280;25155;41.890;23.446;2023-05-16T11:31:54;91457.94;;;19.42;65.05
39455;BME280;25155;41.890;23.446;2023-05-16T11:34:22;91449.88;;;19.51;65.87
39455;BME280;25155;41.890;23.446;2023-05-16T11:36:49;91438.09;;;19.61;65.72
39455;BME280;25155;41.890;23.446;2023-05-16T11:39:16;91430.19;;;19.73;66.11
39455;BME280;25155;41.890;23.446;2023-05-16T11:41:44;91427.53;;;19.73;63.62
39455;BME280;25155;41.890;23.446;2023-05-16T11:44:11;91422.81;;;19.66;62.62
39455;BME280;25155;41.890;23.446;2023-05-16T11:46:38;91410.13;;;19.60;62.05
39455;BME280;25155;41.890;23.446;2023-05-16T11:49:05;91419.47;;;19.57;62.80
39455;BME280;25155;41.890;23.446;2023-05-16T11:51:36;91423.69;;;19.58;63.28
39455;BME280;25155;41.890;23.446;2023-05-16T11:54:03;91421.47;;;19.60;63.29
39455;BME280;25155;41.890;23.446;2023-05-16T11:56:30;91418.94;;;19.64;63.16
39455;BME280;25155;41.890;23.446;2023-05-16T11:58:58;91424.00;;;19.69;62.84
39455;BME280;25155;41.890;23.446;2023-05-16T12:01:25;91425.66;;;19.73;61.97
39455;BME280;25155;41.890;23.446;2023-05-16T12:03:57;91416.31;;;19.76;62.23
39455;BME280;25155;41.890;23.446;2023-05-16T12:06:23;91425.91;;;19.81;62.87
39455;BME280;25155;41.890;23.446;2023-05-16T12:08:52;91429.00;;;19.83;62.51
39455;BME280;25155;41.890;23.446;2023-05-16T12:11:18;91434.41;;;19.86;62.49
39455;BME280;25155;41.890;23.446;2023-05-16T12:13:46;91432.94;;;19.89;62.35
39455;BME280;25155;41.890;23.446;2023-05-16T12:16:13;91429.97;;;19.90;60.36
39455;BME280;25155;41.890;23.446;2023-05-16T12:18:40;91420.19;;;19.91;60.27
39455;BME280;25155;41.890;23.446;2023-05-16T12:21:08;91417.53;;;19.91;59.49
39455;BME280;25155;41.890;23.446;2023-05-16T12:23:35;91419.72;;;19.89;59.40
39455;BME280;25155;41.890;23.446;2023-05-16T12:26:03;91413.66;;;19.88;58.99
39455;BME280;25155;41.890;23.446;2023-05-16T12:28:33;91422.25;;;19.85;58.55
39455;BME280;25155;41.890;23.446;2023-05-16T12:31:00;91416.44;;;19.80;58.82
39455;BME280;25155;41.890;23.446;2023-05-16T12:33:27;91427.22;;;19.75;59.31
39455;BME280;25155;41.890;23.446;2023-05-16T12:35:54;91433.16;;;19.71;58.98
39455;BME280;25155;41.890;23.446;2023-05-16T12:38:21;91431.84;;;19.65;59.85
39455;BME280;25155;41.890;23.446;2023-05-16T12:40:56;91430.75;;;19.66;59.88
39455;BME280;25155;41.890;23.446;2023-05-16T12:43:24;91424.66;;;19.66;60.41
39455;BME280;25155;41.890;23.446;2023-05-16T12:45:53;91424.66;;;19.66;60.16
39455;BME280;25155;41.890;23.446;2023-05-16T12:48:21;91434.03;;;19.63;58.18
39455;BME280;25155;41.890;23.446;2023-05-16T12:50:48;91451.78;;;19.50;58.02
39455;BME280;25155;41.890;23.446;2023-05-16T12:53:16;91450.75;;;19.43;57.87
39455;BME280;25155;41.890;23.446;2023-05-16T12:55:43;91445.94;;;19.45;59.22
39455;BME280;25155;41.890;23.446;2023-05-16T12:58:10;91452.75;;;19.46;59.85
39455;BME280;25155;41.890;23.446;2023-05-16T13:00:39;91449.22;;;19.42;58.76
39455;BME280;25155;41.890;23.446;2023-05-16T13:03:06;91446.38;;;19.47;59.80
39455;BME280;25155;41.890;23.446;2023-05-16T13:05:32;91449.88;;;19.51;60.32
39455;BME280;25155;41.890;23.446;2023-05-16T13:08:00;91437.78;;;19.62;61.27
39455;BME280;25155;41.890;23.446;2023-05-16T13:10:27;91431.59;;;19.70;61.36
39455;BME280;25155;41.890;23.446;2023-05-16T13:12:53;91434.50;;;19.78;61.30
39455;BME280;25155;41.890;23.446;2023-05-16T13:15:22;91442.78;;;19.76;59.90
39455;BME280;25155;41.890;23.446;2023-05-16T13:17:51;91453.22;;;19.72;59.37
39455;BME280;25155;41.890;23.446;2023-05-16T13:20:18;91456.28;;;19.62;59.27
39455;BME280;25155;41.890;23.446;2023-05-16T13:22:45;91449.47;;;19.61;60.23
39455;BME280;25155;41.890;23.446;2023-05-16T13:25:12;91446.94;;;19.65;60.60
39455;BME280;25155;41.890;23.446;2023-05-16T13:27:39;91448.59;;;19.69;60.65
39455;BME280;25155;41.890;23.446;2023-05-16T13:30:06;91445.28;;;19.72;60.36
39455;BME280;25155;41.890;23.446;2023-05-16T13:32:33;91447.47;;;19.70;60.16
39455;BME280;25155;41.890;23.446;2023-05-16T13:35:01;91450.56;;;19.60;59.50
39455;BME280;25155;41.890;23.446;2023-05-16T13:37:30;91447.91;;;19.60;60.34
39455;BME280;25155;41.890;23.446;2023-05-16T13:39:57;91455.53;;;19.62;60.83
39455;BME280;25155;41.890;23.446;2023-05-16T13:42:24;91463.25;;;19.54;60.82
39455;BME280;25155;41.890;23.446;2023-05-16T13:44:51;91464.22;;;19.50;61.27
39455;BME280;25155;41.890;23.446;2023-05-16T13:47:17;91465.31;;;19.49;61.56
39455;BME280;25155;41.890;23.446;2023-05-16T13:49:45;91453.97;;;19.48;61.24
39455;BME280;25155;41.890;23.446;2023-05-16T13:52:13;91466.41;;;19.48;61.17
39455;BME280;25155;41.890;23.446;2023-05-16T13:54:40;91450.44;;;19.44;60.61
39455;BME280;25155;41.890;23.446;2023-05-16T13:57:07;91450.75;;;19.43;61.09
39455;BME280;25155;41.890;23.446;2023-05-16T13:59:34;91453.41;;;19.43;61.45
39455;BME280;25155;41.890;23.446;2023-05-16T14:02:01;91453.41;;;19.43;61.68
39455;BME280;25155;41.890;23.446;2023-05-16T14:04:28;91458.81;;;19.46;62.13
39455;BME280;25155;41.890;23.446;2023-05-16T14:06:54;91453.66;;;19.50;61.91
39455;BME280;25155;41.890;23.446;2023-05-16T14:09:23;91463.56;;;19.53;61.98
39455;BME280;25155;41.890;23.446;2023-05-16T14:11:49;91465.09;;;19.54;61.75
39455;BME280;25155;41.890;23.446;2023-05-16T14:14:16;91461.13;;;19.48;60.95
39455;BME280;25155;41.890;23.446;2023-05-16T14:16:43;91451.78;;;19.50;61.47
39455;BME280;25155;41.890;23.446;2023-05-16T14:19:10;91449.22;;;19.54;61.89
39455;BME280;25155;41.890;23.446;2023-05-16T14:21:37;91448.56;;;19.57;62.18
39455;BME280;25155;41.890;23.446;2023-05-16T14:24:05;91456.94;;;19.59;62.49